Time;durP1;ratioP1;P1;durP2;ratioP2;P2;SDS_P1;SDS_P2;PMS_P1;PMS_P2;Temp;Humidity;BMP_temperature;BMP_pressure;BME280_temperature;BME280_humidity;BME280_pressure;Samples;Min_cycle;Max_cycle;Signal;HPM_P1;HPM_P2
2022/12/03 00:01:16;;;;;;;8.50;6.38;;;;;;;;;;5036116;28;20033;-84
2022/12/03 00:03:42;;;;;;;10.48;6.82;;;;;;;;;;5051076;28;20073;-84
2022/12/03 00:06:07;;;;;;;11.65;5.95;;;;;;;;;;5018498;28;20041;-85
2022/12/03 00:08:32;;;;;;;10.55;7.03;;;;;;;;;;5035966;28;20032;-84
2022/12/03 00:10:58;;;;;;;11.70;6.22;;;;;;;;;;5036397;28;20491;-83
2022/12/03 00:13:23;;;;;;;9.18;6.40;;;;;;;;;;5034441;28;20033;-82
2022/12/03 00:15:49;;;;;;;9.00;6.53;;;;;;;;;;5050946;28;20108;-81
2022/12/03 00:18:14;;;;;;;8.50;6.60;;;;;;;;;;5035983;28;20472;-81
2022/12/03 00:20:39;;;;;;;9.00;6.60;;;;;;;;;;5034697;28;20408;-84
2022/12/03 00:23:05;;;;;;;8.57;6.60;;;;;;;;;;5035117;28;20049;-84
2022/12/03 00:25:30;;;;;;;9.23;6.82;;;;;;;;;;5035401;28;20036;-83
2022/12/03 00:27:55;;;;;;;9.77;6.47;;;;;;;;;;5035335;28;20034;-82
2022/12/03 00:30:21;;;;;;;8.10;6.18;;;;;;;;;;5035230;28;20491;-82
2022/12/03 00:32:46;;;;;;;8.82;6.30;;;;;;;;;;5050263;28;20033;-82
2022/12/03 00:35:12;;;;;;;10.80;6.22;;;;;;;;;;5033942;28;20060;-83
2022/12/03 00:37:37;;;;;;;10.55;6.22;;;;;;;;;;5034840;28;20060;-83
2022/12/03 00:40:04;;;;;;;9.00;6.32;;;;;;;;;;5050369;28;20037;-82
2022/12/03 00:42:30;;;;;;;9.43;6.65;;;;;;;;;;5033447;28;20381;-83
2022/12/03 00:44:55;;;;;;;9.48;6.38;;;;;;;;;;5050195;28;20025;-83
2022/12/03 00:47:20;;;;;;;11.02;6.22;;;;;;;;;;5034944;28;20493;-83
2022/12/03 00:49:46;;;;;;;8.55;5.90;;;;;;;;;;5050127;28;20030;-83
2022/12/03 00:52:11;;;;;;;10.80;6.28;;;;;;;;;;5050036;28;20030;-82
2022/12/03 00:54:36;;;;;;;9.05;6.47;;;;;;;;;;5034634;28;20033;-83
2022/12/03 00:57:02;;;;;;;9.40;6.25;;;;;;;;;;5049707;28;20088;-83
2022/12/03 00:59:27;;;;;;;7.35;5.80;;;;;;;;;;5049961;28;20076;-83
2022/12/03 01:01:52;;;;;;;9.65;6.10;;;;;;;;;;5050063;28;20477;-83
2022/12/03 01:04:18;;;;;;;8.77;5.85;;;;;;;;;;5034885;28;20026;-83
2022/12/03 01:06:43;;;;;;;10.30;6.22;;;;;;;;;;5034319;28;20033;-83
2022/12/03 01:09:08;;;;;;;8.93;6.55;;;;;;;;;;5034396;28;20043;-82
2022/12/03 01:11:37;;;;;;;9.40;6.20;;;;;;;;;;5049852;28;20464;-83
2022/12/03 01:14:11;;;;;;;9.38;6.18;;;;;;;;;;5049173;28;20038;-82
2022/12/03 01:16:37;;;;;;;7.35;5.70;;;;;;;;;;5049497;28;20468;-83
2022/12/03 01:19:04;;;;;;;11.20;6.82;;;;;;;;;;5049041;28;20041;-83
2022/12/03 01:21:29;;;;;;;8.77;5.90;;;;;;;;;;5049767;28;20482;-83
2022/12/03 01:23:55;;;;;;;8.25;5.75;;;;;;;;;;5034031;28;20053;-83
2022/12/03 01:26:21;;;;;;;8.05;6.35;;;;;;;;;;5049311;28;20033;-83
2022/12/03 01:28:46;;;;;;;9.23;6.65;;;;;;;;;;5049363;28;20025;-84
2022/12/03 01:33:55;;;;;;;9.80;6.20;;;;;;;;;;5033958;28;20507;-83
2022/12/03 01:36:21;;;;;;;8.35;6.13;;;;;;;;;;5033809;28;20056;-83
2022/12/03 01:38:47;;;;;;;8.30;5.80;;;;;;;;;;5049368;28;20464;-83
2022/12/03 01:41:13;;;;;;;9.02;6.30;;;;;;;;;;5033880;28;20389;-82
2022/12/03 01:43:39;;;;;;;9.45;6.18;;;;;;;;;;5049052;28;20502;-83
2022/12/03 01:46:04;;;;;;;8.45;6.05;;;;;;;;;;5049363;28;20053;-82
2022/12/03 01:48:33;;;;;;;8.20;6.32;;;;;;;;;;5049254;28;20033;-81
2022/12/03 01:50:58;;;;;;;11.75;6.40;;;;;;;;;;5049263;28;20558;-82
2022/12/03 01:53:23;;;;;;;9.50;6.07;;;;;;;;;;5033564;28;20183;-81
2022/12/03 01:55:49;;;;;;;9.85;6.05;;;;;;;;;;5033433;28;20468;-82
2022/12/03 01:58:15;;;;;;;9.55;6.00;;;;;;;;;;5033000;28;20123;-82
2022/12/03 02:00:40;;;;;;;8.43;5.85;;;;;;;;;;5033702;28;20112;-82
2022/12/03 02:03:18;;;;;;;7.22;6.00;;;;;;;;;;5034120;28;20531;-83
2022/12/03 02:05:43;;;;;;;9.88;6.00;;;;;;;;;;5048774;28;20029;-82
2022/12/03 02:08:32;;;;;;;8.85;5.72;;;;;;;;;;5048889;28;20034;-83
2022/12/03 02:11:04;;;;;;;10.23;5.72;;;;;;;;;;5048911;28;20112;-84
2022/12/03 02:13:30;;;;;;;8.40;6.13;;;;;;;;;;5048621;28;20030;-83
2022/12/03 02:15:56;;;;;;;10.13;6.75;;;;;;;;;;5048761;28;20048;-83
2022/12/03 02:18:22;;;;;;;8.90;6.18;;;;;;;;;;5048439;28;20052;-83
2022/12/03 02:21:28;;;;;;;8.43;6.05;;;;;;;;;;5048512;28;20030;-83
2022/12/03 02:24:23;;;;;;;12.32;5.90;;;;;;;;;;4956629;28;20042;-84
2022/12/03 02:26:49;;;;;;;9.55;6.30;;;;;;;;;;4972199;28;20026;-83
2022/12/03 02:29:14;;;;;;;8.68;6.18;;;;;;;;;;4972333;28;20437;-82
2022/12/03 02:31:41;;;;;;;8.13;5.85;;;;;;;;;;4957993;28;20109;-82
2022/12/03 02:34:06;;;;;;;8.20;6.30;;;;;;;;;;4960047;28;20037;-83
2022/12/03 02:36:32;;;;;;;7.93;5.57;;;;;;;;;;4960430;28;20066;-82
2022/12/03 02:38:58;;;;;;;7.72;5.93;;;;;;;;;;4960365;28;20129;-82
2022/12/03 02:44:07;;;;;;;11.55;6.38;;;;;;;;;;4962431;28;20030;-82
2022/12/03 02:46:33;;;;;;;7.47;5.80;;;;;;;;;;4960051;28;20465;-82
2022/12/03 02:49:00;;;;;;;8.82;6.18;;;;;;;;;;4944138;28;20043;-82
2022/12/03 02:51:25;;;;;;;8.75;6.40;;;;;;;;;;4975975;28;20031;-82
2022/12/03 02:53:52;;;;;;;6.97;5.60;;;;;;;;;;4988175;28;20044;-82
2022/12/03 02:56:20;;;;;;;9.68;6.30;;;;;;;;;;5052230;28;20044;-82
2022/12/03 02:58:47;;;;;;;7.50;5.75;;;;;;;;;;5052024;28;20061;-82
2022/12/03 03:01:14;;;;;;;8.13;5.93;;;;;;;;;;5052447;28;20025;-82
2022/12/03 03:03:39;;;;;;;8.10;6.07;;;;;;;;;;5052209;28;20100;-82
2022/12/03 03:06:06;;;;;;;8.35;6.15;;;;;;;;;;5036862;28;20060;-82
2022/12/03 03:08:32;;;;;;;9.40;6.00;;;;;;;;;;5051835;28;20029;-82
2022/12/03 03:10:59;;;;;;;8.68;6.18;;;;;;;;;;5051831;28;20036;-83
2022/12/03 03:13:24;;;;;;;8.75;5.80;;;;;;;;;;5051561;28;20017;-83
2022/12/03 03:15:50;;;;;;;8.10;6.05;;;;;;;;;;5051686;28;20038;-82
2022/12/03 03:18:15;;;;;;;8.93;6.05;;;;;;;;;;5034886;28;20034;-82
2022/12/03 03:20:41;;;;;;;7.72;5.55;;;;;;;;;;5051574;28;20399;-82
2022/12/03 03:23:09;;;;;;;7.85;5.80;;;;;;;;;;5051479;28;20030;-82
2022/12/03 03:25:36;;;;;;;9.73;6.55;;;;;;;;;;5035231;28;20464;-83
2022/12/03 03:28:01;;;;;;;7.95;5.80;;;;;;;;;;5052020;28;20064;-84
2022/12/03 03:30:27;;;;;;;8.13;6.20;;;;;;;;;;5051564;28;20150;-83
2022/12/03 03:32:52;;;;;;;8.15;6.40;;;;;;;;;;5051621;28;20440;-84
2022/12/03 03:35:17;;;;;;;6.93;5.40;;;;;;;;;;5051221;28;20044;-83
2022/12/03 03:37:43;;;;;;;8.30;6.10;;;;;;;;;;5035903;28;20029;-83
2022/12/03 03:40:08;;;;;;;7.90;6.15;;;;;;;;;;5051095;28;20040;-83
2022/12/03 03:42:34;;;;;;;8.40;6.13;;;;;;;;;;5034845;28;20091;-83
2022/12/03 03:44:59;;;;;;;7.68;5.82;;;;;;;;;;5034568;28;20428;-82
2022/12/03 03:47:25;;;;;;;6.88;5.45;;;;;;;;;;5034466;28;20100;-82
2022/12/03 03:49:51;;;;;;;7.38;5.70;;;;;;;;;;5034451;28;20049;-83
2022/12/03 03:52:18;;;;;;;7.15;5.72;;;;;;;;;;5036022;28;20108;-83
2022/12/03 03:54:43;;;;;;;8.77;6.13;;;;;;;;;;5051056;28;20033;-83
2022/12/03 03:57:09;;;;;;;7.18;5.45;;;;;;;;;;5034428;28;20144;-83
2022/12/03 03:59:34;;;;;;;9.00;6.40;;;;;;;;;;5034515;28;20037;-82
2022/12/03 04:01:59;;;;;;;7.45;6.03;;;;;;;;;;5035992;28;20029;-82
2022/12/03 04:04:26;;;;;;;7.25;5.80;;;;;;;;;;5035773;28;20025;-82
2022/12/03 04:06:51;;;;;;;8.63;6.15;;;;;;;;;;5034323;28;20488;-83
2022/12/03 04:09:17;;;;;;;7.22;5.65;;;;;;;;;;5050686;28;20049;-83
2022/12/03 04:14:26;;;;;;;8.45;6.00;;;;;;;;;;5048434;28;20095;-83
2022/12/03 04:16:51;;;;;;;9.70;6.68;;;;;;;;;;5035191;28;20042;-84
2022/12/03 04:19:16;;;;;;;8.55;6.32;;;;;;;;;;5050580;28;20044;-84
2022/12/03 04:24:26;;;;;;;8.93;6.20;;;;;;;;;;5035352;28;20032;-84
2022/12/03 04:29:36;;;;;;;7.45;5.72;;;;;;;;;;5035460;28;20144;-83
2022/12/03 04:37:29;;;;;;;7.35;5.57;;;;;;;;;;5035072;28;20034;-82
2022/12/03 04:39:54;;;;;;;8.38;5.95;;;;;;;;;;5035293;28;20121;-82
2022/12/03 04:42:19;;;;;;;8.10;6.15;;;;;;;;;;5034864;28;20041;-82
2022/12/03 04:44:45;;;;;;;8.63;6.25;;;;;;;;;;5050248;28;20079;-83
2022/12/03 04:47:15;;;;;;;9.50;6.30;;;;;;;;;;5034842;28;20037;-82
2022/12/03 04:49:50;;;;;;;7.57;5.80;;;;;;;;;;5050185;28;20460;-82
2022/12/03 04:52:18;;;;;;;9.70;5.82;;;;;;;;;;5049759;28;20371;-82
2022/12/03 04:54:44;;;;;;;8.85;6.25;;;;;;;;;;5032873;28;20064;-82
2022/12/03 04:57:10;;;;;;;8.52;5.90;;;;;;;;;;5032862;28;20053;-83
2022/12/03 04:59:36;;;;;;;8.75;6.55;;;;;;;;;;5049991;28;20064;-82
2022/12/03 05:02:05;;;;;;;9.27;6.10;;;;;;;;;;5034672;28;20456;-83
2022/12/03 05:04:30;;;;;;;7.97;5.93;;;;;;;;;;5059496;28;20076;-82
2022/12/03 05:06:56;;;;;;;8.70;6.13;;;;;;;;;;5049297;28;20037;-83
2022/12/03 05:09:21;;;;;;;7.55;6.00;;;;;;;;;;5049137;28;20033;-83
2022/12/03 05:11:46;;;;;;;8.65;6.40;;;;;;;;;;5049256;28;20029;-83
2022/12/03 05:14:12;;;;;;;7.63;6.22;;;;;;;;;;5049027;28;20041;-83
2022/12/03 05:16:38;;;;;;;9.82;6.55;;;;;;;;;;5033856;28;20087;-83
2022/12/03 05:19:04;;;;;;;8.55;6.47;;;;;;;;;;5049208;28;20029;-83
2022/12/03 05:21:30;;;;;;;9.07;6.10;;;;;;;;;;5049007;28;20075;-82
2022/12/03 05:23:56;;;;;;;8.52;6.50;;;;;;;;;;5049291;28;20037;-82
2022/12/03 05:26:21;;;;;;;8.75;6.70;;;;;;;;;;5032530;28;20107;-82
2022/12/03 05:28:47;;;;;;;10.07;6.72;;;;;;;;;;5049428;28;20534;-83
2022/12/03 05:31:12;;;;;;;9.45;6.65;;;;;;;;;;5048948;28;20025;-82
2022/12/03 05:33:38;;;;;;;11.82;7.18;;;;;;;;;;5033764;28;20480;-82
2022/12/03 05:36:03;;;;;;;10.25;7.40;;;;;;;;;;5050226;28;20127;-82
2022/12/03 05:38:28;;;;;;;10.43;7.18;;;;;;;;;;5049345;28;20146;-82
2022/12/03 05:40:54;;;;;;;11.00;6.95;;;;;;;;;;5033827;28;20041;-82
2022/12/03 05:43:19;;;;;;;15.50;7.22;;;;;;;;;;5049365;28;20029;-82
2022/12/03 05:45:44;;;;;;;12.23;7.30;;;;;;;;;;5034354;28;20456;-82
2022/12/03 05:48:12;;;;;;;9.75;6.80;;;;;;;;;;5037001;28;20033;-82
2022/12/03 05:50:40;;;;;;;10.43;7.40;;;;;;;;;;5050862;28;20072;-82
2022/12/03 05:53:05;;;;;;;9.98;7.18;;;;;;;;;;5051350;28;20051;-83
2022/12/03 05:55:31;;;;;;;9.98;7.32;;;;;;;;;;5050874;28;20531;-82
2022/12/03 05:57:56;;;;;;;9.85;7.30;;;;;;;;;;5049816;28;20053;-83
2022/12/03 06:00:28;;;;;;;10.57;7.20;;;;;;;;;;5035047;28;20029;-82
2022/12/03 06:02:56;;;;;;;10.82;7.38;;;;;;;;;;5049860;28;20025;-82
2022/12/03 06:05:22;;;;;;;10.52;7.68;;;;;;;;;;5048394;28;20029;-83
2022/12/03 06:07:51;;;;;;;10.05;7.10;;;;;;;;;;5031571;28;20029;-83
2022/12/03 06:10:26;;;;;;;9.55;7.05;;;;;;;;;;5033629;28;20044;-83
2022/12/03 06:12:52;;;;;;;18.77;7.15;;;;;;;;;;5032146;28;20033;-83
2022/12/03 06:15:17;;;;;;;11.45;7.57;;;;;;;;;;5049683;28;20133;-82
2022/12/03 06:17:42;;;;;;;13.45;7.57;;;;;;;;;;5050326;28;20120;-82
2022/12/03 06:20:12;;;;;;;11.18;7.40;;;;;;;;;;5033047;28;20075;-82
2022/12/03 06:22:38;;;;;;;12.80;7.50;;;;;;;;;;5049744;28;20034;-82
2022/12/03 06:25:03;;;;;;;12.00;7.22;;;;;;;;;;5050123;28;20029;-82
2022/12/03 06:27:29;;;;;;;13.23;7.60;;;;;;;;;;5034686;28;20035;-82
2022/12/03 06:29:54;;;;;;;11.15;7.30;;;;;;;;;;5033833;28;20029;-82
2022/12/03 06:32:19;;;;;;;10.68;7.85;;;;;;;;;;5049355;28;20526;-83
2022/12/03 06:34:45;;;;;;;11.60;7.65;;;;;;;;;;5033629;28;20395;-83
2022/12/03 06:37:10;;;;;;;11.00;7.65;;;;;;;;;;5033489;28;20036;-82
2022/12/03 06:39:35;;;;;;;9.88;7.20;;;;;;;;;;5048693;28;20104;-83
2022/12/03 06:42:01;;;;;;;10.65;7.43;;;;;;;;;;5049124;28;20384;-82
2022/12/03 06:44:26;;;;;;;13.27;7.38;;;;;;;;;;5048841;28;20025;-82
2022/12/03 06:46:51;;;;;;;10.55;7.50;;;;;;;;;;5031969;28;20116;-84
2022/12/03 06:49:17;;;;;;;9.85;7.25;;;;;;;;;;5048770;28;20044;-83
2022/12/03 06:51:42;;;;;;;9.55;6.85;;;;;;;;;;5033736;28;20107;-84
2022/12/03 06:54:08;;;;;;;14.75;7.85;;;;;;;;;;5033597;28;20033;-85
2022/12/03 06:56:33;;;;;;;14.40;6.88;;;;;;;;;;5019714;28;20029;-80
2022/12/03 06:58:58;;;;;;;11.70;7.20;;;;;;;;;;5065778;28;20029;-82
2022/12/03 07:01:24;;;;;;;17.20;7.20;;;;;;;;;;5033783;28;20025;-82
2022/12/03 07:03:49;;;;;;;9.95;6.97;;;;;;;;;;5033317;28;20033;-82
2022/12/03 07:06:15;;;;;;;11.82;6.97;;;;;;;;;;5048249;28;20037;-81
2022/12/03 07:08:40;;;;;;;9.35;6.75;;;;;;;;;;5033176;28;20025;-81
2022/12/03 07:11:29;;;;;;;8.45;6.80;;;;;;;;;;5033271;28;20034;-82
2022/12/03 07:13:54;;;;;;;9.82;7.05;;;;;;;;;;5045721;28;20026;-81
2022/12/03 07:16:20;;;;;;;10.18;6.43;;;;;;;;;;5048445;28;20039;-82
2022/12/03 07:18:48;;;;;;;10.43;7.28;;;;;;;;;;5034993;28;20037;-82
2022/12/03 07:21:14;;;;;;;9.05;7.00;;;;;;;;;;5036564;28;20033;-83
2022/12/03 07:23:39;;;;;;;10.38;7.03;;;;;;;;;;5051738;28;20051;-83
2022/12/03 07:26:04;;;;;;;10.82;7.43;;;;;;;;;;5036564;28;20029;-81
2022/12/03 07:28:30;;;;;;;11.73;7.70;;;;;;;;;;5036390;28;20539;-81
2022/12/03 07:30:55;;;;;;;14.23;7.57;;;;;;;;;;5036079;28;20029;-82
2022/12/03 07:33:20;;;;;;;10.18;7.22;;;;;;;;;;5051124;28;20099;-81
2022/12/03 07:35:46;;;;;;;15.73;7.68;;;;;;;;;;5051465;28;20112;-82
2022/12/03 07:38:11;;;;;;;18.02;7.10;;;;;;;;;;5036055;28;20026;-80
2022/12/03 07:40:37;;;;;;;18.73;7.95;;;;;;;;;;5036177;28;20425;-83
2022/12/03 07:43:02;;;;;;;15.18;8.32;;;;;;;;;;5035673;28;20458;-82
2022/12/03 07:45:27;;;;;;;19.75;8.27;;;;;;;;;;5034853;28;20028;-84
2022/12/03 07:47:53;;;;;;;31.80;7.78;;;;;;;;;;5051718;28;20040;-83
2022/12/03 07:50:18;;;;;;;21.23;9.88;;;;;;;;;;5034498;28;20371;-83
2022/12/03 07:52:43;;;;;;;19.48;8.45;;;;;;;;;;5051161;28;20030;-85
2022/12/03 07:55:10;;;;;;;19.10;7.65;;;;;;;;;;5050929;28;20037;-84
2022/12/03 07:57:36;;;;;;;21.80;8.82;;;;;;;;;;5034294;28;20045;-85
2022/12/03 08:00:04;;;;;;;14.63;8.40;;;;;;;;;;5051026;28;20108;-83
2022/12/03 08:02:29;;;;;;;15.27;8.30;;;;;;;;;;5051447;28;20040;-83
2022/12/03 08:04:55;;;;;;;20.38;8.98;;;;;;;;;;5052045;28;20116;-85
2022/12/03 08:07:20;;;;;;;18.05;8.88;;;;;;;;;;5051567;28;20044;-86
2022/12/03 08:09:45;;;;;;;15.77;9.20;;;;;;;;;;5051462;28;20080;-86
2022/12/03 08:12:15;;;;;;;16.42;8.57;;;;;;;;;;5051700;28;20022;-84
2022/12/03 08:14:41;;;;;;;18.95;8.75;;;;;;;;;;5038639;28;20472;-84
2022/12/03 08:17:11;;;;;;;14.57;8.82;;;;;;;;;;5034735;28;20133;-82
2022/12/03 08:19:37;;;;;;;15.80;9.27;;;;;;;;;;5051692;28;20030;-80
2022/12/03 08:22:10;;;;;;;21.00;9.70;;;;;;;;;;5051598;28;20040;-86
2022/12/03 08:24:36;;;;;;;32.38;11.07;;;;;;;;;;5051567;28;20021;-85
2022/12/03 08:27:01;;;;;;;34.13;12.52;;;;;;;;;;5035232;28;20037;-83
2022/12/03 08:29:26;;;;;;;39.13;12.38;;;;;;;;;;5034404;28;20042;-84
2022/12/03 08:31:55;;;;;;;37.83;11.20;;;;;;;;;;5036660;28;20491;-83
2022/12/03 08:34:23;;;;;;;27.88;11.32;;;;;;;;;;5034198;28;20042;-84
2022/12/03 08:36:51;;;;;;;33.63;12.50;;;;;;;;;;5034073;28;20484;-85
2022/12/03 08:39:29;;;;;;;28.20;12.30;;;;;;;;;;5034006;28;20033;-84
2022/12/03 08:42:40;;;;;;;25.58;11.73;;;;;;;;;;5033566;28;20387;-85
2022/12/03 08:45:31;;;;;;;23.75;11.45;;;;;;;;;;5033782;28;20124;-85
2022/12/03 08:47:59;;;;;;;20.45;10.30;;;;;;;;;;5033942;28;20017;-85
2022/12/03 08:50:31;;;;;;;21.70;10.98;;;;;;;;;;5037097;28;20040;-85
2022/12/03 08:53:19;;;;;;;25.25;11.05;;;;;;;;;;5034535;28;20104;-82
2022/12/03 08:55:47;;;;;;;21.70;11.70;;;;;;;;;;5035074;28;20029;-85
2022/12/03 08:58:27;;;;;;;24.73;10.85;;;;;;;;;;5035510;28;20547;-84
2022/12/03 09:01:14;;;;;;;25.98;11.00;;;;;;;;;;5035841;28;20495;-82
2022/12/03 09:03:51;;;;;;;21.33;11.38;;;;;;;;;;5033663;28;20025;-82
2022/12/03 09:06:17;;;;;;;17.40;10.20;;;;;;;;;;5017618;28;20130;-83
2022/12/03 09:08:42;;;;;;;19.00;10.80;;;;;;;;;;5034511;28;20029;-86
2022/12/03 09:11:08;;;;;;;20.02;10.85;;;;;;;;;;5033998;28;20025;-84
2022/12/03 09:13:33;;;;;;;20.30;11.13;;;;;;;;;;5016943;28;20079;-84
2022/12/03 09:15:58;;;;;;;17.05;10.40;;;;;;;;;;5033227;28;20500;-84
2022/12/03 09:18:24;;;;;;;18.92;11.23;;;;;;;;;;5034558;28;20107;-85
2022/12/03 09:20:49;;;;;;;20.05;11.00;;;;;;;;;;5034452;28;20036;-83
2022/12/03 09:23:15;;;;;;;17.45;10.60;;;;;;;;;;5016578;28;20045;-85
2022/12/03 09:25:40;;;;;;;20.65;11.07;;;;;;;;;;5016680;28;20472;-84
2022/12/03 09:28:05;;;;;;;21.08;10.88;;;;;;;;;;5000085;28;20029;-82
2022/12/03 09:30:31;;;;;;;16.55;10.00;;;;;;;;;;5033049;28;20025;-82
2022/12/03 09:32:58;;;;;;;15.73;9.52;;;;;;;;;;5032980;28;20036;-85
2022/12/03 09:35:24;;;;;;;18.23;10.27;;;;;;;;;;5018222;28;20469;-84
2022/12/03 09:37:50;;;;;;;22.00;10.38;;;;;;;;;;5016681;28;20179;-84
2022/12/03 09:40:16;;;;;;;22.00;10.88;;;;;;;;;;5033173;28;20056;-85
2022/12/03 09:42:41;;;;;;;23.20;10.82;;;;;;;;;;5000551;28;20036;-84
2022/12/03 09:45:10;;;;;;;19.50;10.90;;;;;;;;;;5035157;28;20036;-84
2022/12/03 09:47:36;;;;;;;24.85;11.13;;;;;;;;;;5032993;28;20021;-84
2022/12/03 09:50:03;;;;;;;18.20;11.25;;;;;;;;;;5033081;28;20471;-84
2022/12/03 09:52:32;;;;;;;19.98;11.48;;;;;;;;;;5034394;28;20068;-84
2022/12/03 09:55:00;;;;;;;21.70;11.55;;;;;;;;;;5017425;28;20031;-84
2022/12/03 09:57:25;;;;;;;18.10;11.18;;;;;;;;;;5035229;28;20028;-84
2022/12/03 09:59:51;;;;;;;21.30;11.10;;;;;;;;;;5018952;28;20049;-84
2022/12/03 10:02:24;;;;;;;20.38;11.43;;;;;;;;;;5036670;28;20042;-85
2022/12/03 10:04:49;;;;;;;20.90;11.70;;;;;;;;;;5052396;28;20423;-84
2022/12/03 10:07:15;;;;;;;19.55;10.70;;;;;;;;;;5036642;28;20274;-84
2022/12/03 10:09:40;;;;;;;17.50;9.85;;;;;;;;;;5033811;28;20033;-84
2022/12/03 10:12:09;;;;;;;25.63;11.85;;;;;;;;;;5050471;28;20033;-85
2022/12/03 10:14:35;;;;;;;18.67;10.95;;;;;;;;;;5033907;28;20034;-84
2022/12/03 10:17:00;;;;;;;21.38;11.88;;;;;;;;;;5015827;28;20109;-84
2022/12/03 10:19:30;;;;;;;19.60;10.30;;;;;;;;;;5033062;28;20041;-84
2022/12/03 10:21:56;;;;;;;19.63;11.40;;;;;;;;;;5015336;28;20555;-84
2022/12/03 10:24:27;;;;;;;18.73;10.45;;;;;;;;;;5048788;28;20124;-85
2022/12/03 10:27:23;;;;;;;18.13;10.75;;;;;;;;;;5015995;28;20033;-84
2022/12/03 10:30:00;;;;;;;16.98;10.27;;;;;;;;;;5030907;28;20067;-84
2022/12/03 10:32:37;;;;;;;18.80;10.70;;;;;;;;;;5016132;28;20057;-84
2022/12/03 10:35:12;;;;;;;17.83;10.50;;;;;;;;;;5016331;28;20064;-84
2022/12/03 10:37:56;;;;;;;20.70;10.27;;;;;;;;;;5038826;28;20029;-84
2022/12/03 10:40:40;;;;;;;19.48;11.20;;;;;;;;;;5042443;28;20033;-84
2022/12/03 10:43:25;;;;;;;18.90;10.73;;;;;;;;;;5059792;28;20025;-84
2022/12/03 10:46:00;;;;;;;19.98;10.93;;;;;;;;;;5039922;28;20053;-82
2022/12/03 10:48:26;;;;;;;18.05;10.60;;;;;;;;;;5034363;28;20025;-84
2022/12/03 10:50:56;;;;;;;17.08;10.55;;;;;;;;;;5033349;28;20407;-84
2022/12/03 10:53:25;;;;;;;18.35;10.43;;;;;;;;;;5020063;28;20025;-84
2022/12/03 10:55:57;;;;;;;18.15;10.70;;;;;;;;;;5021381;28;20148;-84
2022/12/03 10:58:28;;;;;;;18.45;10.30;;;;;;;;;;5020898;28;20090;-84
2022/12/03 11:00:55;;;;;;;18.52;10.98;;;;;;;;;;5035998;28;20037;-84
2022/12/03 11:03:26;;;;;;;16.83;10.65;;;;;;;;;;5019028;28;20022;-84
2022/12/03 11:05:53;;;;;;;14.65;9.57;;;;;;;;;;5019052;28;20040;-84
2022/12/03 11:08:39;;;;;;;18.02;10.25;;;;;;;;;;5051927;28;20032;-85
2022/12/03 11:11:16;;;;;;;16.77;10.25;;;;;;;;;;5035133;28;20057;-83
2022/12/03 11:13:47;;;;;;;20.25;11.10;;;;;;;;;;5019003;28;20052;-85
2022/12/03 11:16:13;;;;;;;17.77;9.77;;;;;;;;;;5018628;28;20025;-84
2022/12/03 11:18:39;;;;;;;14.90;9.52;;;;;;;;;;5051828;28;20025;-84
2022/12/03 11:21:13;;;;;;;17.08;9.88;;;;;;;;;;5036749;28;20353;-84
2022/12/03 11:23:45;;;;;;;17.08;9.43;;;;;;;;;;5019507;28;20047;-84
2022/12/03 11:26:14;;;;;;;15.50;10.05;;;;;;;;;;5037886;28;20025;-84
2022/12/03 11:28:45;;;;;;;16.05;10.05;;;;;;;;;;5035630;28;20491;-84
2022/12/03 11:31:34;;;;;;;14.38;9.07;;;;;;;;;;5036748;28;20025;-85
2022/12/03 11:34:18;;;;;;;15.35;9.02;;;;;;;;;;5051758;28;20087;-85
2022/12/03 11:37:08;;;;;;;15.30;9.70;;;;;;;;;;5040425;28;20391;-84
2022/12/03 11:40:01;;;;;;;14.65;8.57;;;;;;;;;;5036071;28;20029;-83
2022/12/03 11:42:28;;;;;;;12.00;8.45;;;;;;;;;;5012420;28;20472;-84
2022/12/03 11:45:03;;;;;;;14.35;8.40;;;;;;;;;;5051071;28;20025;-84
2022/12/03 11:47:37;;;;;;;12.57;8.13;;;;;;;;;;5034822;28;20468;-84
2022/12/03 11:50:22;;;;;;;12.07;8.05;;;;;;;;;;5050849;28;20140;-84
2022/12/03 11:53:06;;;;;;;13.82;7.05;;;;;;;;;;5050472;28;20029;-85
2022/12/03 11:55:37;;;;;;;14.35;7.97;;;;;;;;;;5035462;28;20036;-85
2022/12/03 11:58:11;;;;;;;10.98;8.00;;;;;;;;;;5050553;28;20107;-83
2022/12/03 12:00:36;;;;;;;10.80;7.28;;;;;;;;;;5050470;28;20026;-84
2022/12/03 12:03:01;;;;;;;10.90;7.40;;;;;;;;;;5035110;28;20041;-85
2022/12/03 12:05:32;;;;;;;11.63;7.15;;;;;;;;;;5049956;28;20133;-85
2022/12/03 12:07:59;;;;;;;11.73;7.15;;;;;;;;;;5050451;28;20066;-85
2022/12/03 12:10:42;;;;;;;10.80;7.28;;;;;;;;;;5050612;28;20028;-85
2022/12/03 12:13:32;;;;;;;11.18;7.45;;;;;;;;;;5050395;28;20025;-86
2022/12/03 12:16:03;;;;;;;11.48;7.63;;;;;;;;;;5050439;28;20056;-85
2022/12/03 12:18:50;;;;;;;17.13;8.23;;;;;;;;;;5033679;28;20026;-82
2022/12/03 12:21:41;;;;;;;14.13;7.90;;;;;;;;;;5049866;28;20026;-86
2022/12/03 12:24:45;;;;;;;25.98;8.50;;;;;;;;;;5033657;28;20391;-88
2022/12/03 12:27:14;;;;;;;17.73;8.23;;;;;;;;;;5050591;28;20492;-86
2022/12/03 12:29:41;;;;;;;18.60;8.23;;;;;;;;;;5033959;28;20032;-87
2022/12/03 12:32:11;;;;;;;18.95;8.32;;;;;;;;;;5050239;28;20448;-85
2022/12/03 12:34:37;;;;;;;16.10;8.88;;;;;;;;;;5033770;28;20033;-84
2022/12/03 12:37:09;;;;;;;24.40;8.65;;;;;;;;;;5050750;28;20458;-84
2022/12/03 12:39:34;;;;;;;19.90;8.32;;;;;;;;;;5050690;28;20025;-85
2022/12/03 12:42:01;;;;;;;18.00;8.27;;;;;;;;;;5050761;28;20029;-83
2022/12/03 12:44:27;;;;;;;17.08;9.15;;;;;;;;;;5033750;28;20116;-83
2022/12/03 12:46:53;;;;;;;14.38;8.57;;;;;;;;;;5033710;28;20064;-82
2022/12/03 12:49:23;;;;;;;18.17;8.75;;;;;;;;;;5017982;28;20133;-84
2022/12/03 12:51:49;;;;;;;15.25;8.45;;;;;;;;;;5050856;28;20096;-83
2022/12/03 12:54:16;;;;;;;20.63;9.15;;;;;;;;;;5051233;28;20053;-83
2022/12/03 12:56:48;;;;;;;19.02;9.20;;;;;;;;;;5034264;28;20057;-84
2022/12/03 12:59:20;;;;;;;16.40;8.45;;;;;;;;;;5050228;28;20051;-83
2022/12/03 13:01:48;;;;;;;17.35;9.48;;;;;;;;;;5050551;28;20365;-84
2022/12/03 13:04:23;;;;;;;18.08;8.63;;;;;;;;;;5033937;28;20041;-81
2022/12/03 13:06:50;;;;;;;18.52;9.27;;;;;;;;;;5035163;28;20026;-85
2022/12/03 13:09:18;;;;;;;17.27;9.35;;;;;;;;;;5035138;28;20029;-85
2022/12/03 13:11:46;;;;;;;17.92;10.20;;;;;;;;;;5050214;28;20025;-86
2022/12/03 13:14:21;;;;;;;24.67;9.55;;;;;;;;;;5017166;28;20025;-86
2022/12/03 13:16:48;;;;;;;19.65;9.32;;;;;;;;;;5050647;28;20040;-84
2022/12/03 13:19:23;;;;;;;20.20;9.93;;;;;;;;;;5050442;28;20043;-84
2022/12/03 13:21:50;;;;;;;18.20;9.98;;;;;;;;;;5050055;28;20490;-85
2022/12/03 13:24:28;;;;;;;20.60;9.82;;;;;;;;;;5050101;28;20108;-86
2022/12/03 13:26:53;;;;;;;21.15;10.68;;;;;;;;;;5034881;28;20187;-89
2022/12/03 13:29:21;;;;;;;22.70;10.52;;;;;;;;;;5033343;28;20231;-88
2022/12/03 13:31:58;;;;;;;23.00;10.55;;;;;;;;;;5049920;28;20029;-89
2022/12/03 13:34:26;;;;;;;19.85;9.98;;;;;;;;;;5034360;28;20033;-88
2022/12/03 13:36:53;;;;;;;21.58;10.68;;;;;;;;;;5049381;28;20017;-86
2022/12/03 13:39:21;;;;;;;17.33;10.00;;;;;;;;;;5032805;28;20041;-89
2022/12/03 13:44:32;;;;;;;22.42;10.45;;;;;;;;;;5033593;28;20028;-88
2022/12/03 13:47:10;;;;;;;17.20;10.05;;;;;;;;;;5034643;28;20021;-90
2022/12/03 13:49:36;;;;;;;22.48;10.07;;;;;;;;;;5033849;28;20025;-89
2022/12/03 13:52:01;;;;;;;25.27;10.50;;;;;;;;;;5035618;28;20113;-89
2022/12/03 13:54:30;;;;;;;20.70;10.18;;;;;;;;;;5033470;28;20128;-89
2022/12/03 13:56:55;;;;;;;18.88;10.32;;;;;;;;;;5035054;28;20415;-87
2022/12/03 13:59:21;;;;;;;18.88;10.40;;;;;;;;;;5050781;28;20057;-85
2022/12/03 14:01:46;;;;;;;19.27;10.15;;;;;;;;;;5036397;28;20040;-87
2022/12/03 14:04:11;;;;;;;17.75;10.30;;;;;;;;;;5041261;28;20033;-89
2022/12/03 14:06:37;;;;;;;17.17;9.70;;;;;;;;;;5047078;28;20025;-87
2022/12/03 14:09:03;;;;;;;17.90;9.63;;;;;;;;;;5060432;28;20060;-88
2022/12/03 14:14:12;;;;;;;15.55;9.70;;;;;;;;;;5051541;28;20056;-89
2022/12/03 14:16:37;;;;;;;16.27;8.93;;;;;;;;;;5050948;28;20535;-88
2022/12/03 14:19:02;;;;;;;14.93;8.93;;;;;;;;;;5035820;28;20055;-89
2022/12/03 14:21:28;;;;;;;15.23;9.32;;;;;;;;;;5050379;28;20405;-88
2022/12/03 14:23:53;;;;;;;15.32;9.10;;;;;;;;;;5032370;28;20040;-86
2022/12/03 14:26:19;;;;;;;18.08;9.55;;;;;;;;;;5049229;28;20032;-87
2022/12/03 14:28:44;;;;;;;15.45;8.77;;;;;;;;;;5033542;28;20111;-87
2022/12/03 14:31:09;;;;;;;17.20;9.35;;;;;;;;;;5033297;28;20032;-88
2022/12/03 14:33:35;;;;;;;14.88;8.55;;;;;;;;;;5032157;28;20114;-86
2022/12/03 14:36:01;;;;;;;15.13;8.63;;;;;;;;;;5031923;28;20029;-88
2022/12/03 14:38:27;;;;;;;13.80;8.48;;;;;;;;;;5034854;28;20033;-88
2022/12/03 14:40:52;;;;;;;14.90;8.45;;;;;;;;;;5049164;28;20495;-89
2022/12/03 14:43:17;;;;;;;16.23;8.98;;;;;;;;;;5049101;28;20030;-88
2022/12/03 14:45:43;;;;;;;16.45;8.80;;;;;;;;;;5050509;28;20083;-89
2022/12/03 14:48:08;;;;;;;19.80;8.82;;;;;;;;;;5017714;28;20098;-88
2022/12/03 14:50:33;;;;;;;12.25;8.35;;;;;;;;;;5050450;28;20036;-85
2022/12/03 14:52:59;;;;;;;12.73;8.38;;;;;;;;;;5032949;28;20040;-84
2022/12/03 14:55:24;;;;;;;13.73;8.05;;;;;;;;;;5033644;28;20026;-83
2022/12/03 14:57:54;;;;;;;17.02;8.82;;;;;;;;;;5038563;28;20116;-83
2022/12/03 15:00:20;;;;;;;13.07;8.85;;;;;;;;;;5032622;28;20076;-83
2022/12/03 15:02:45;;;;;;;15.40;8.55;;;;;;;;;;5034187;28;20395;-84